Bidford-on-avon, United Kingdom
Current Conditions -  °F | °C
As of 4:50 AM on Tuesday 21 Oct 2014 (Local Time) from EGBB Reporting Station
Light Rain Light Rain  
Wind Chill: 54°   Ceiling: 1300
Heat Index: 54°   Visibility: 6mi
Dew Point: 52°   Wind: 14mph
Humidity: 94%   Direction: 190°S
Pressure: 29.5"   Gusts: NA
Location:  52.17°N, 1.86°W
Report Text: EGBB 210350Z 19012KT 160V220 9999 -RA FEW008 BKN013 12/11 Q0999
Loading
Personal Weather Stations






























Interactive Weather Map New forecast layout! Learn more

10-Day Weather Forecast

Advertisements
Track Severe Weather on mobile